Time;durP1;ratioP1;P1;durP2;ratioP2;P2;SDS_P1;SDS_P2;PMS_P1;PMS_P2;Temp;Humidity;BMP_temperature;BMP_pressure;BME280_temperature;BME280_humidity;BME280_pressure;Samples;Min_cycle;Max_cycle;Signal;HPM_P1;HPM_P2
2023/04/04 00:01:18;;;;;;;4.70;2.50;;;;;;;0.26;nan;98109.66;1727634;75;24787;-69
2023/04/04 00:03:50;;;;;;;3.70;2.10;;;;;;;0.29;nan;98103.50;1728036;75;24477;-70
2023/04/04 00:06:25;;;;;;;4.70;2.10;;;;;;;0.15;nan;98109.75;1727527;83;24625;-67
2023/04/04 00:08:58;;;;;;;5.20;2.70;;;;;;;0.09;nan;98114.00;1727593;75;24462;-67
2023/04/04 00:11:29;;;;;;;4.10;2.10;;;;;;;0.10;nan;98107.47;1727867;75;24146;-68
2023/04/04 00:13:59;;;;;;;4.00;2.30;;;;;;;0.06;nan;98112.09;1727050;75;25064;-69
2023/04/04 00:16:29;;;;;;;2.90;2.10;;;;;;;0.00;nan;98113.69;1727775;75;24135;-69
2023/04/04 00:18:58;;;;;;;2.60;1.70;;;;;;;-0.06;nan;98104.47;1727512;75;24347;-70
2023/04/04 00:21:31;;;;;;;2.60;1.90;;;;;;;0.08;nan;98109.03;1727532;75;24285;-67
2023/04/04 00:24:01;;;;;;;2.90;1.50;;;;;;;0.09;nan;98107.84;1727640;83;24854;-68
2023/04/04 00:26:31;;;;;;;1.80;1.10;;;;;;;0.09;nan;98114.00;1727708;75;24933;-70
2023/04/04 00:29:00;;;;;;;1.70;1.40;;;;;;;0.07;nan;98112.84;1727638;75;24401;-68
2023/04/04 00:31:30;;;;;;;2.00;1.30;;;;;;;0.01;nan;98112.53;1727752;75;24768;-69
2023/04/04 00:34:00;;;;;;;1.70;1.30;;;;;;;-0.12;nan;98103.34;1727479;75;24381;-68
2023/04/04 00:36:32;;;;;;;2.30;1.10;;;;;;;-0.17;nan;98111.84;1727806;75;24238;-69
2023/04/04 00:39:02;;;;;;;1.40;1.10;;;;;;;-0.26;nan;98106.91;1727441;75;24149;-68
2023/04/04 00:41:33;;;;;;;2.90;1.30;;;;;;;-0.37;nan;98114.25;1727755;75;24259;-68
2023/04/04 00:44:04;;;;;;;1.00;0.90;;;;;;;-0.40;nan;98112.34;1727556;75;24483;-71
2023/04/04 00:46:34;;;;;;;1.00;0.90;;;;;;;-0.46;nan;98101.22;1727769;75;24152;-67
2023/04/04 00:49:04;;;;;;;2.50;1.30;;;;;;;-0.58;nan;98098.94;1727446;83;24846;-69
2023/04/04 00:51:37;;;;;;;1.20;1.00;;;;;;;-0.67;nan;98102.06;1727535;75;24947;-67
2023/04/04 00:54:07;;;;;;;2.50;1.30;;;;;;;-0.79;nan;98100.56;1727446;75;24466;-70
2023/04/04 00:56:41;;;;;;;1.90;1.30;;;;;;;-0.87;nan;98102.50;1727414;75;24128;-67
2023/04/04 00:59:11;;;;;;;2.80;1.00;;;;;;;-0.99;nan;98102.13;1727703;75;24311;-67
2023/04/04 01:01:41;;;;;;;3.80;1.50;;;;;;;-1.05;nan;98107.16;1727721;75;24118;-69
2023/04/04 01:04:11;;;;;;;2.20;1.20;;;;;;;-1.15;nan;98097.94;1727467;75;24167;-68
2023/04/04 01:06:44;;;;;;;1.40;1.00;;;;;;;-1.20;nan;98095.66;1727853;75;24677;-69
2023/04/04 01:09:14;;;;;;;2.50;1.30;;;;;;;-1.20;nan;98109.09;1727165;75;24405;-70
2023/04/04 01:11:46;;;;;;;1.60;1.00;;;;;;;-1.26;nan;98094.50;1727742;75;24279;-70
2023/04/04 01:14:16;;;;;;;1.20;1.00;;;;;;;-1.29;nan;98095.28;1727352;75;24913;-69
2023/04/04 01:16:47;;;;;;;1.60;1.10;;;;;;;-1.43;nan;98100.66;1727660;75;25035;-68
2023/04/04 01:19:24;;;;;;;2.30;1.20;;;;;;;-1.51;nan;98094.53;1727184;75;24165;-68
2023/04/04 01:21:57;;;;;;;1.40;1.00;;;;;;;-1.58;nan;98094.53;1727124;75;24177;-68
2023/04/04 01:24:30;;;;;;;1.30;0.90;;;;;;;-1.60;nan;98094.91;1727449;75;24332;-68
2023/04/04 01:27:03;;;;;;;1.40;1.10;;;;;;;-1.83;nan;98087.22;1727046;83;24105;-67
2023/04/04 01:29:33;;;;;;;2.10;1.20;;;;;;;-1.82;nan;98088.00;1727486;75;24658;-68
2023/04/04 01:32:10;;;;;;;2.70;1.50;;;;;;;-1.92;nan;98089.53;1727594;75;24170;-69
2023/04/04 01:34:52;;;;;;;2.20;1.20;;;;;;;-1.87;nan;98093.75;1727460;75;25112;-69
2023/04/04 01:37:30;;;;;;;4.80;1.30;;;;;;;-1.93;nan;98083.38;1727570;75;25430;-71
2023/04/04 01:40:10;;;;;;;3.40;1.60;;;;;;;-1.98;nan;98083.00;1728231;75;24991;-66
2023/04/04 01:42:43;;;;;;;1.90;1.30;;;;;;;-2.00;nan;98086.03;1727737;75;24862;-70
2023/04/04 01:45:14;;;;;;;1.90;1.40;;;;;;;-2.10;nan;98080.66;1727860;75;24531;-70
2023/04/04 01:47:44;;;;;;;2.10;1.20;;;;;;;-2.05;nan;98091.78;1727780;75;24442;-68
2023/04/04 01:50:14;;;;;;;2.30;1.40;;;;;;;-2.15;nan;98079.88;1727770;75;24456;-68
2023/04/04 01:52:44;;;;;;;1.70;1.40;;;;;;;-2.29;nan;98079.09;1727766;75;24380;-68
2023/04/04 01:55:13;;;;;;;3.00;1.40;;;;;;;-2.28;nan;98076.03;1728179;75;24287;-67
2023/04/04 01:57:46;;;;;;;2.70;1.50;;;;;;;-2.24;nan;98079.47;1727923;75;24876;-70
2023/04/04 02:00:17;;;;;;;3.00;1.40;;;;;;;-2.21;nan;98075.28;1728061;75;24907;-70
2023/04/04 02:02:47;;;;;;;1.50;1.20;;;;;;;-2.31;nan;98076.00;1727713;75;24271;-69
2023/04/04 02:05:16;;;;;;;1.70;1.20;;;;;;;-2.32;nan;98066.44;1728358;75;24229;-72
2023/04/04 02:07:51;;;;;;;1.60;1.10;;;;;;;-2.32;nan;98071.81;1727860;75;24844;-69
2023/04/04 02:10:20;;;;;;;1.70;1.10;;;;;;;-2.31;nan;98076.78;1728125;75;24866;-70
2023/04/04 02:12:55;;;;;;;1.10;0.90;;;;;;;-2.36;nan;98077.16;1727832;75;25731;-69
2023/04/04 02:15:25;;;;;;;2.00;1.00;;;;;;;-2.46;nan;98069.84;1727995;75;24903;-67
2023/04/04 02:17:55;;;;;;;1.10;1.00;;;;;;;-2.50;nan;98071.75;1727819;75;24935;-68
2023/04/04 02:20:25;;;;;;;1.70;1.10;;;;;;;-2.57;nan;98070.59;1727952;75;24400;-70
2023/04/04 02:22:55;;;;;;;1.70;1.20;;;;;;;-2.65;nan;98068.25;1727709;75;24398;-72
2023/04/04 02:25:26;;;;;;;1.40;1.20;;;;;;;-2.56;nan;98060.63;1727909;75;24120;-70
2023/04/04 02:27:59;;;;;;;2.80;1.40;;;;;;;-2.55;nan;98059.47;1727620;75;24886;-68
2023/04/04 02:30:28;;;;;;;2.40;1.30;;;;;;;-2.51;nan;98062.94;1728017;75;24314;-69
2023/04/04 02:33:00;;;;;;;1.90;1.70;;;;;;;-2.69;nan;98056.78;1727444;75;24709;-68
2023/04/04 02:35:31;;;;;;;3.00;2.00;;;;;;;-2.59;nan;98062.16;1727299;75;24626;-68
2023/04/04 02:38:00;;;;;;;3.50;2.30;;;;;;;-2.51;nan;98062.19;1727289;75;24197;-72
2023/04/04 02:40:30;;;;;;;4.30;2.60;;;;;;;-2.45;nan;98047.28;1727787;75;24183;-68
2023/04/04 02:43:02;;;;;;;5.90;4.00;;;;;;;-2.40;nan;98042.31;1727404;75;24116;-67
2023/04/04 02:45:32;;;;;;;6.40;3.90;;;;;;;-2.29;nan;98042.31;1728075;75;24220;-71
2023/04/04 02:48:02;;;;;;;6.20;3.00;;;;;;;-2.10;nan;98037.75;1727497;75;24482;-70
2023/04/04 02:50:32;;;;;;;4.40;2.70;;;;;;;-1.89;nan;98031.66;1727976;75;24085;-69
2023/04/04 02:53:04;;;;;;;3.50;2.50;;;;;;;-1.75;nan;98028.97;1727521;75;24620;-71
2023/04/04 02:55:34;;;;;;;6.00;3.10;;;;;;;-1.66;nan;98029.34;1728090;75;24676;-69
2023/04/04 02:58:06;;;;;;;4.10;2.50;;;;;;;-1.63;nan;98019.75;1727721;75;24745;-67
2023/04/04 03:00:36;;;;;;;4.60;2.80;;;;;;;-1.60;nan;98016.28;1727935;75;24286;-70
2023/04/04 03:03:06;;;;;;;6.40;3.20;;;;;;;-1.62;nan;98011.31;1727750;75;24644;-69
2023/04/04 03:05:36;;;;;;;3.90;2.60;;;;;;;-1.57;nan;98016.28;1728112;75;24251;-69
2023/04/04 03:08:05;;;;;;;4.60;2.60;;;;;;;-1.52;nan;98015.88;1727688;75;24320;-67
2023/04/04 03:10:35;;;;;;;5.00;2.80;;;;;;;-1.37;nan;98010.50;1727912;75;24198;-67
2023/04/04 03:13:07;;;;;;;5.40;2.90;;;;;;;-1.40;nan;98005.91;1727628;75;24883;-67
2023/04/04 03:15:37;;;;;;;4.40;2.90;;;;;;;-1.37;nan;98000.53;1727727;75;24963;-69
2023/04/04 03:18:07;;;;;;;5.20;3.20;;;;;;;-1.35;nan;98000.94;1727560;75;25508;-72
2023/04/04 03:20:36;;;;;;;5.40;2.40;;;;;;;-1.35;nan;98000.13;1727734;75;24975;-68
2023/04/04 03:23:06;;;;;;;5.10;2.80;;;;;;;-1.29;nan;98001.28;1727510;75;25023;-68
2023/04/04 03:25:38;;;;;;;5.50;3.50;;;;;;;-1.26;nan;97995.13;1727787;83;24376;-69
2023/04/04 03:28:14;;;;;;;4.60;2.70;;;;;;;-1.12;nan;97997.00;1727325;75;24865;-68
2023/04/04 03:30:44;;;;;;;6.30;3.50;;;;;;;-1.10;nan;97997.41;1727349;75;24229;-69
2023/04/04 03:33:14;;;;;;;5.90;2.80;;;;;;;-1.14;nan;97996.63;1727820;75;24402;-67
2023/04/04 03:35:43;;;;;;;4.60;2.80;;;;;;;-1.12;nan;97994.34;1727562;75;24273;-68
2023/04/04 03:38:13;;;;;;;5.20;2.80;;;;;;;-1.21;nan;97997.41;1727630;75;24933;-68
2023/04/04 03:41:03;;;;;;;3.50;2.40;;;;;;;-1.14;nan;97986.66;1727593;75;24501;-68
2023/04/04 03:43:36;;;;;;;2.50;1.70;;;;;;;-1.15;nan;97985.13;1727776;75;24730;-69
2023/04/04 03:46:07;;;;;;;3.20;2.50;;;;;;;-1.21;nan;97980.53;1727516;75;24741;-69
2023/04/04 03:48:37;;;;;;;4.80;2.20;;;;;;;-1.26;nan;97984.38;1728019;75;24234;-67
2023/04/04 03:51:08;;;;;;;2.70;1.90;;;;;;;-1.32;nan;97988.63;1728092;75;24747;-70
2023/04/04 03:53:38;;;;;;;2.00;1.40;;;;;;;-1.41;nan;97990.97;1727943;75;24185;-66
2023/04/04 03:56:08;;;;;;;2.50;1.30;;;;;;;-1.50;nan;98002.84;1727494;75;24259;-72
2023/04/04 03:58:41;;;;;;;2.20;1.20;;;;;;;-1.70;nan;97990.25;1727860;75;24140;-70
2023/04/04 04:01:11;;;;;;;1.30;1.10;;;;;;;-1.81;nan;97982.94;1727287;75;26267;-69
2023/04/04 04:03:40;;;;;;;1.40;1.00;;;;;;;-1.97;nan;97979.91;1727719;75;25184;-68
2023/04/04 04:06:10;;;;;;;1.00;1.00;;;;;;;-1.90;nan;97982.59;1727508;75;25312;-68
2023/04/04 04:08:40;;;;;;;1.60;1.10;;;;;;;-1.99;nan;97991.00;1727863;75;24813;-67
2023/04/04 04:11:18;;;;;;;1.00;1.00;;;;;;;-2.15;nan;97991.38;1727419;83;24417;-68
2023/04/04 04:13:50;;;;;;;1.60;1.20;;;;;;;-2.25;nan;97994.06;1727187;75;24247;-68
2023/04/04 04:16:20;;;;;;;4.30;1.20;;;;;;;-2.26;nan;97987.16;1727329;75;24352;-68
2023/04/04 04:18:50;;;;;;;1.20;0.90;;;;;;;-2.32;nan;97986.00;1727411;75;24169;-69
2023/04/04 04:21:20;;;;;;;1.80;1.30;;;;;;;-2.40;nan;97979.88;1727631;75;24568;-67
2023/04/04 04:23:50;;;;;;;2.60;1.60;;;;;;;-2.38;nan;97985.63;1727487;75;24527;-68
2023/04/04 04:26:20;;;;;;;3.70;2.50;;;;;;;-2.51;nan;97987.88;1727683;75;24250;-69
2023/04/04 04:28:52;;;;;;;3.80;2.60;;;;;;;-2.48;nan;97986.34;1727459;75;24971;-67
2023/04/04 04:31:21;;;;;;;4.30;2.60;;;;;;;-2.65;nan;97985.19;1727859;75;25062;-72
2023/04/04 04:33:52;;;;;;;6.40;4.40;;;;;;;-2.66;nan;97989.00;1727498;75;25080;-70
2023/04/04 04:36:21;;;;;;;7.20;4.30;;;;;;;-2.79;nan;97994.72;1728030;75;24271;-67
2023/04/04 04:38:51;;;;;;;7.60;4.40;;;;;;;-2.82;nan;98000.06;1727537;75;24245;-69
2023/04/04 04:41:21;;;;;;;8.00;5.20;;;;;;;-2.85;nan;97998.13;1727843;75;24307;-70
2023/04/04 04:43:54;;;;;;;6.50;3.90;;;;;;;-2.88;nan;97996.97;1727445;75;24891;-68
2023/04/04 04:46:23;;;;;;;6.30;3.50;;;;;;;-2.89;nan;97992.00;1727702;75;24655;-70
2023/04/04 04:48:53;;;;;;;4.20;2.50;;;;;;;-2.84;nan;98003.13;1727260;75;24685;-67
2023/04/04 04:51:24;;;;;;;3.10;2.10;;;;;;;-2.93;nan;98005.38;1727836;75;24268;-71
2023/04/04 04:53:53;;;;;;;2.40;1.60;;;;;;;-2.97;nan;98006.50;1727067;75;24787;-70
2023/04/04 04:56:23;;;;;;;3.30;1.70;;;;;;;-2.99;nan;98004.19;1727560;75;24245;-68
2023/04/04 04:58:55;;;;;;;2.40;1.60;;;;;;;-3.00;nan;98016.81;1727141;75;24100;-69
2023/04/04 05:01:25;;;;;;;2.60;1.60;;;;;;;-3.12;nan;98019.06;1727598;75;24253;-69
2023/04/04 05:03:54;;;;;;;1.30;1.20;;;;;;;-3.11;nan;98010.66;1727285;75;24674;-69
2023/04/04 05:06:24;;;;;;;1.80;1.30;;;;;;;-3.12;nan;98016.41;1727515;75;25052;-67
2023/04/04 05:08:54;;;;;;;2.10;1.30;;;;;;;-3.23;nan;98016.31;1727214;75;24837;-66
2023/04/04 05:11:23;;;;;;;2.90;1.30;;;;;;;-3.15;nan;98017.13;1727597;75;24702;-70
2023/04/04 05:13:56;;;;;;;1.90;1.40;;;;;;;-3.26;nan;98035.81;1727242;75;24148;-71
2023/04/04 05:16:25;;;;;;;2.40;1.50;;;;;;;-3.25;nan;98030.09;1727664;75;24280;-67
2023/04/04 05:18:55;;;;;;;2.00;1.20;;;;;;;-3.29;nan;98031.97;1727449;75;24238;-67
2023/04/04 05:21:25;;;;;;;1.70;1.20;;;;;;;-3.15;nan;98028.63;1727596;75;24155;-69
2023/04/04 05:23:56;;;;;;;2.20;1.30;;;;;;;-3.10;nan;98030.94;1727479;75;24559;-68
2023/04/04 05:26:25;;;;;;;2.30;1.60;;;;;;;-3.14;nan;98030.16;1727932;75;24202;-69
2023/04/04 05:28:58;;;;;;;1.30;1.20;;;;;;;-3.00;nan;98037.50;1727312;75;25008;-66
2023/04/04 05:31:28;;;;;;;1.80;1.20;;;;;;;-2.98;nan;98035.22;1727220;75;25546;-68
2023/04/04 05:33:58;;;;;;;1.80;1.50;;;;;;;-2.93;nan;98034.84;1727346;75;24836;-69
2023/04/04 05:36:28;;;;;;;3.00;2.20;;;;;;;-2.92;nan;98039.06;1727654;75;24442;-67
2023/04/04 05:38:57;;;;;;;4.10;2.00;;;;;;;-2.84;nan;98039.84;1727584;75;24382;-67
2023/04/04 05:41:27;;;;;;;3.20;2.00;;;;;;;-2.78;nan;98033.75;1727079;75;24184;-67
2023/04/04 05:44:00;;;;;;;2.70;1.80;;;;;;;-2.71;nan;98045.66;1727105;75;24229;-67
2023/04/04 05:46:30;;;;;;;2.90;1.70;;;;;;;-2.64;nan;98049.13;1727503;75;24576;-68
2023/04/04 05:49:00;;;;;;;2.00;1.60;;;;;;;-2.53;nan;98057.19;1727398;75;24410;-67
2023/04/04 05:51:30;;;;;;;3.10;2.10;;;;;;;-2.47;nan;98052.25;1727902;75;24217;-69
2023/04/04 05:54:00;;;;;;;4.70;1.90;;;;;;;-2.38;nan;98049.97;1727193;75;24950;-68
2023/04/04 05:56:31;;;;;;;4.70;2.80;;;;;;;-2.27;nan;98044.63;1727491;75;25482;-69
2023/04/04 05:59:03;;;;;;;4.60;2.70;;;;;;;-2.14;nan;98048.50;1727087;75;24344;-68
2023/04/04 06:01:36;;;;;;;3.70;2.50;;;;;;;-2.10;nan;98054.59;1721898;75;24088;-67
2023/04/04 06:04:06;;;;;;;2.30;1.70;;;;;;;-1.99;nan;98049.28;1724883;75;24425;-70
2023/04/04 06:07:00;;;;;;;3.60;2.20;;;;;;;-1.79;nan;98046.97;1725328;75;24385;-69
2023/04/04 06:09:35;;;;;;;1.90;1.40;;;;;;;-1.67;nan;98046.59;1726734;75;24974;-71
2023/04/04 06:12:07;;;;;;;2.30;1.80;;;;;;;-1.47;nan;98041.59;1726194;75;24869;-67
2023/04/04 06:14:40;;;;;;;2.60;1.80;;;;;;;-1.28;nan;98051.16;1727258;75;24606;-68
2023/04/04 06:17:10;;;;;;;2.50;1.80;;;;;;;-1.12;nan;98038.06;1726549;75;24304;-69
2023/04/04 06:19:39;;;;;;;6.40;3.10;;;;;;;-0.71;nan;98036.78;1727059;75;26356;-67
2023/04/04 06:22:09;;;;;;;4.80;3.00;;;;;;;-0.59;nan;98038.28;1726625;75;24263;-68
2023/04/04 06:24:39;;;;;;;4.50;2.40;;;;;;;-0.48;nan;98038.97;1727878;75;24044;-65
2023/04/04 06:27:09;;;;;;;3.30;2.10;;;;;;;-0.29;nan;98043.09;1727082;75;24298;-65
2023/04/04 06:29:42;;;;;;;4.80;2.40;;;;;;;-0.04;nan;98045.66;1727696;75;24635;-66
2023/04/04 06:32:12;;;;;;;4.90;2.40;;;;;;;0.14;nan;98040.88;1726908;75;24298;-67
2023/04/04 06:34:42;;;;;;;1.70;1.60;;;;;;;0.29;nan;98046.16;1727821;75;24870;-67
2023/04/04 06:37:11;;;;;;;3.40;1.90;;;;;;;0.44;nan;98041.47;1726861;75;24107;-69
2023/04/04 06:39:41;;;;;;;4.70;2.90;;;;;;;0.54;nan;98040.59;1727277;75;24174;-68
2023/04/04 06:42:11;;;;;;;4.90;3.10;;;;;;;0.64;nan;98043.16;1725933;75;24373;-69
2023/04/04 06:44:43;;;;;;;4.50;2.60;;;;;;;1.03;nan;98038.56;1727239;75;24958;-67
2023/04/04 06:47:16;;;;;;;4.10;2.60;;;;;;;1.27;nan;98034.81;1726470;75;24639;-68
2023/04/04 06:49:45;;;;;;;12.70;2.50;;;;;;;1.49;nan;98038.00;1727333;75;24586;-70
2023/04/04 06:52:15;;;;;;;4.30;2.50;;;;;;;1.35;nan;98037.41;1726120;75;24772;-68
2023/04/04 06:54:45;;;;;;;3.80;2.40;;;;;;;1.35;nan;98032.00;1727420;75;24603;-67
2023/04/04 06:57:15;;;;;;;4.00;2.10;;;;;;;1.48;nan;98027.63;1726591;75;24172;-69
2023/04/04 06:59:47;;;;;;;4.30;2.60;;;;;;;1.55;nan;98041.00;1726892;75;24958;-67
2023/04/04 07:02:17;;;;;;;4.80;2.50;;;;;;;1.60;nan;98034.41;1727328;75;25054;-68
2023/04/04 07:04:46;;;;;;;5.20;3.00;;;;;;;1.54;nan;98039.50;1727305;75;24578;-70
2023/04/04 07:07:17;;;;;;;3.30;2.30;;;;;;;1.56;nan;98034.44;1725658;83;24809;-67
2023/04/04 07:09:46;;;;;;;2.50;1.90;;;;;;;2.00;nan;98027.28;1726446;75;24347;-67
2023/04/04 07:12:16;;;;;;;2.80;2.20;;;;;;;1.98;nan;98026.16;1726091;75;24201;-68
2023/04/04 07:14:48;;;;;;;2.70;1.90;;;;;;;1.99;nan;98025.75;1727281;75;24119;-68
2023/04/04 07:17:18;;;;;;;4.40;2.60;;;;;;;1.78;nan;98028.75;1725606;75;24830;-71
2023/04/04 07:19:47;;;;;;;2.60;1.90;;;;;;;2.16;nan;98023.94;1727082;75;24879;-69
2023/04/04 07:22:17;;;;;;;3.80;2.00;;;;;;;2.18;nan;98027.00;1725488;75;24300;-68
2023/04/04 07:24:47;;;;;;;5.60;2.40;;;;;;;1.91;nan;98035.13;1727076;75;24636;-70
2023/04/04 07:27:16;;;;;;;3.90;2.20;;;;;;;2.03;nan;98031.09;1725743;75;24368;-70
2023/04/04 07:29:49;;;;;;;4.10;2.20;;;;;;;1.74;nan;98028.06;1726730;75;24230;-69
2023/04/04 07:32:18;;;;;;;3.50;2.10;;;;;;;1.92;nan;98034.72;1725633;75;24789;-68
2023/04/04 07:34:49;;;;;;;4.20;2.10;;;;;;;2.03;nan;98023.00;1726998;75;24761;-67
2023/04/04 07:37:18;;;;;;;4.50;2.40;;;;;;;1.80;nan;98035.28;1726161;75;24773;-68
2023/04/04 07:39:48;;;;;;;3.00;2.00;;;;;;;2.36;nan;98015.94;1726802;75;24825;-68
2023/04/04 07:42:22;;;;;;;5.00;2.70;;;;;;;1.87;nan;98029.00;1725811;75;24674;-66
2023/04/04 07:44:54;;;;;;;4.20;2.30;;;;;;;1.84;nan;98019.03;1726507;75;24172;-67
2023/04/04 07:47:24;;;;;;;6.90;2.40;;;;;;;2.34;nan;98021.72;1725838;75;24144;-69
2023/04/04 07:49:53;;;;;;;3.80;2.20;;;;;;;2.20;nan;98018.50;1726664;75;24643;-67
2023/04/04 07:52:23;;;;;;;7.10;2.10;;;;;;;2.70;nan;98031.19;1725523;75;24126;-69
2023/04/04 07:54:53;;;;;;;3.10;2.20;;;;;;;2.71;nan;98032.69;1726087;75;24326;-70
2023/04/04 07:57:23;;;;;;;4.80;2.30;;;;;;;2.68;nan;98030.81;1725823;75;24337;-68
2023/04/04 07:59:55;;;;;;;4.70;2.30;;;;;;;2.85;nan;98024.31;1726916;75;24915;-68
2023/04/04 08:02:25;;;;;;;3.90;2.40;;;;;;;2.71;nan;98019.94;1725038;75;24175;-66
2023/04/04 08:04:54;;;;;;;5.30;2.60;;;;;;;2.64;nan;98022.00;1726523;75;25622;-67
2023/04/04 08:07:24;;;;;;;1.90;1.60;;;;;;;2.77;nan;98025.66;1725629;75;24290;-68
2023/04/04 08:09:54;;;;;;;5.80;2.60;;;;;;;2.75;nan;98023.34;1726975;75;24133;-71
2023/04/04 08:12:24;;;;;;;3.70;2.10;;;;;;;2.79;nan;98028.69;1724961;75;24291;-69
2023/04/04 08:14:56;;;;;;;4.10;2.40;;;;;;;2.95;nan;98026.06;1726235;75;24972;-68
2023/04/04 08:17:25;;;;;;;3.60;1.90;;;;;;;2.80;nan;98024.06;1725571;75;25509;-68
2023/04/04 08:19:55;;;;;;;3.80;2.40;;;;;;;2.90;nan;98018.44;1726608;75;27481;-68
2023/04/04 08:22:25;;;;;;;2.80;2.10;;;;;;;2.83;nan;98021.28;1725155;75;25176;-69
2023/04/04 08:24:55;;;;;;;4.20;2.70;;;;;;;2.78;nan;98016.34;1726239;75;24803;-67
2023/04/04 08:27:25;;;;;;;4.00;2.40;;;;;;;3.28;nan;98020.03;1725779;75;24151;-68
2023/04/04 08:29:57;;;;;;;4.50;2.20;;;;;;;3.13;nan;98019.56;1726528;75;24317;-66
2023/04/04 08:32:27;;;;;;;2.70;1.80;;;;;;;3.78;nan;98008.91;1725105;75;25004;-71
2023/04/04 08:34:56;;;;;;;3.10;1.80;;;;;;;3.62;nan;98008.88;1726357;75;24744;-70
2023/04/04 08:37:28;;;;;;;2.80;2.00;;;;;;;4.11;nan;97997.34;1725969;75;24180;-68
2023/04/04 08:39:58;;;;;;;3.20;2.20;;;;;;;3.96;nan;97996.91;1726598;75;26836;-68
2023/04/04 08:42:29;;;;;;;3.00;2.30;;;;;;;3.92;nan;98004.34;1725206;75;24170;-69
2023/04/04 08:45:04;;;;;;;3.30;2.20;;;;;;;3.94;nan;98008.16;1726959;75;24959;-68
2023/04/04 08:47:35;;;;;;;3.50;2.20;;;;;;;3.53;nan;97992.44;1725808;75;24569;-67
2023/04/04 08:50:09;;;;;;;3.50;1.90;;;;;;;4.17;nan;97987.53;1726265;75;24762;-67
2023/04/04 08:52:39;;;;;;;3.60;1.80;;;;;;;3.74;nan;97991.97;1725782;75;24565;-67
2023/04/04 08:55:10;;;;;;;3.00;1.80;;;;;;;4.30;nan;97987.59;1726336;75;24680;-68
2023/04/04 08:57:41;;;;;;;3.10;1.70;;;;;;;4.72;nan;97987.72;1725382;75;24210;-66
2023/04/04 09:00:16;;;;;;;13.10;3.40;;;;;;;4.36;nan;97983.19;1726880;75;26044;-68
2023/04/04 09:02:57;;;;;;;2.60;2.00;;;;;;;4.26;nan;97988.44;1725073;75;24244;-68
2023/04/04 09:05:27;;;;;;;3.00;1.90;;;;;;;4.51;nan;97978.94;1727051;75;24218;-67
2023/04/04 09:07:59;;;;;;;11.20;2.50;;;;;;;4.03;nan;97983.19;1725190;75;24360;-72
2023/04/04 09:10:31;;;;;;;2.90;2.30;;;;;;;4.11;nan;97972.94;1726175;75;24232;-69
2023/04/04 09:13:02;;;;;;;2.40;1.60;;;;;;;5.39;nan;97960.63;1724089;75;24935;-70
2023/04/04 09:15:37;;;;;;;2.70;1.90;;;;;;;4.85;nan;97974.94;1727085;75;25007;-67
2023/04/04 09:18:06;;;;;;;3.30;2.10;;;;;;;3.86;nan;97977.03;1725300;75;24785;-69
2023/04/04 09:20:42;;;;;;;4.70;2.50;;;;;;;4.18;nan;97967.34;1726796;75;24598;-69
2023/04/04 09:23:13;;;;;;;4.70;2.30;;;;;;;4.17;nan;97982.09;1725719;83;24578;-69
2023/04/04 09:25:49;;;;;;;2.70;1.70;;;;;;;4.91;nan;97965.84;1726361;75;24249;-70
2023/04/04 09:28:20;;;;;;;2.50;1.90;;;;;;;4.83;nan;97961.78;1725729;75;24740;-70
2023/04/04 09:30:54;;;;;;;3.50;2.30;;;;;;;4.83;nan;97958.31;1726355;75;24134;-71
2023/04/04 09:33:26;;;;;;;3.50;2.10;;;;;;;4.29;nan;97959.72;1725517;75;25150;-69
2023/04/04 09:36:01;;;;;;;2.40;1.70;;;;;;;4.51;nan;97959.19;1727409;83;24176;-67
2023/04/04 09:38:32;;;;;;;5.10;2.00;;;;;;;5.30;nan;97955.06;1725361;75;24786;-68
2023/04/04 09:41:09;;;;;;;3.10;2.00;;;;;;;4.78;nan;97939.88;1726823;75;24594;-68
2023/04/04 09:44:02;;;;;;;2.50;1.90;;;;;;;4.63;nan;97937.53;1725988;75;25351;-69
2023/04/04 09:46:35;;;;;;;1.80;1.20;;;;;;;5.77;nan;97938.13;1726447;75;24681;-70
2023/04/04 09:49:05;;;;;;;3.40;1.70;;;;;;;5.64;nan;97926.53;1726012;75;24241;-67
2023/04/04 09:51:37;;;;;;;2.90;1.70;;;;;;;6.05;nan;97933.78;1726532;75;24142;-69
2023/04/04 09:54:07;;;;;;;3.10;1.60;;;;;;;6.43;nan;97932.91;1726528;75;24343;-69
2023/04/04 09:56:38;;;;;;;2.70;1.60;;;;;;;6.04;nan;97931.47;1726303;75;24310;-68
2023/04/04 09:59:10;;;;;;;4.60;1.80;;;;;;;6.47;nan;97927.34;1725704;75;24517;-69
2023/04/04 10:01:42;;;;;;;4.30;1.90;;;;;;;6.03;nan;97927.25;1726851;83;24508;-69
2023/04/04 10:04:12;;;;;;;2.80;1.50;;;;;;;6.07;nan;97927.91;1727115;75;24254;-67
2023/04/04 10:06:44;;;;;;;2.60;1.60;;;;;;;5.95;nan;97924.78;1726675;75;24923;-73
2023/04/04 10:09:14;;;;;;;2.40;1.30;;;;;;;6.96;nan;97913.94;1727398;75;25060;-67
2023/04/04 10:11:44;;;;;;;2.20;1.30;;;;;;;7.01;nan;97905.19;1726590;75;24557;-72
2023/04/04 10:14:36;;;;;;;6.50;1.70;;;;;;;5.61;nan;97920.00;1727313;83;24260;-70
2023/04/04 10:17:15;;;;;;;3.50;1.80;;;;;;;7.14;nan;97896.94;1727510;75;24524;-67
2023/04/04 10:19:46;;;;;;;4.90;1.40;;;;;;;5.79;nan;97895.00;1727822;75;24502;-66
2023/04/04 10:22:18;;;;;;;2.40;1.50;;;;;;;6.07;nan;97896.06;1728101;75;24200;-69
2023/04/04 10:24:48;;;;;;;1.90;1.50;;;;;;;7.69;nan;97893.66;1727907;75;25035;-71
2023/04/04 10:27:18;;;;;;;3.30;1.70;;;;;;;6.12;nan;97906.34;1727421;75;25526;-67
2023/04/04 10:29:48;;;;;;;4.10;1.90;;;;;;;6.17;nan;97908.50;1727976;75;24631;-68
2023/04/04 10:32:26;;;;;;;2.10;1.30;;;;;;;7.74;nan;97893.06;1727217;75;24503;-68
2023/04/04 10:35:02;;;;;;;;;;;;;;;6.31;nan;97896.41;1727628;75;24369;-66
2023/04/04 10:37:45;;;;;;;2.90;1.50;;;;;;;7.36;nan;97896.13;1727148;83;24141;-70
2023/04/04 10:40:21;;;;;;;3.60;1.50;;;;;;;6.54;nan;97894.47;1727799;75;25378;-68
2023/04/04 10:42:53;;;;;;;5.30;1.60;;;;;;;6.64;nan;97887.13;1727301;75;24282;-68
2023/04/04 10:45:23;;;;;;;7.10;1.50;;;;;;;6.86;nan;97882.44;1727750;75;24242;-69
2023/04/04 10:47:58;;;;;;;5.20;1.60;;;;;;;6.05;nan;97882.13;1727666;75;24219;-71
2023/04/04 10:50:30;;;;;;;3.50;1.50;;;;;;;5.40;nan;97879.94;1728223;75;24326;-68
2023/04/04 10:53:02;;;;;;;2.80;1.40;;;;;;;5.67;nan;97865.91;1727366;75;24623;-68
2023/04/04 10:55:32;;;;;;;1.80;1.10;;;;;;;6.36;nan;97876.06;1727664;75;24494;-69
2023/04/04 10:58:02;;;;;;;4.20;1.90;;;;;;;6.98;nan;97875.41;1726512;75;24604;-68
2023/04/04 11:00:32;;;;;;;2.70;1.30;;;;;;;6.93;nan;97868.56;1727881;75;24276;-66
2023/04/04 11:03:05;;;;;;;3.20;1.60;;;;;;;6.37;nan;97872.91;1727434;75;25014;-70
2023/04/04 11:05:40;;;;;;;3.10;1.50;;;;;;;7.64;nan;97865.03;1727919;75;24969;-68
2023/04/04 11:08:15;;;;;;;3.10;1.50;;;;;;;7.49;nan;97852.47;1727179;75;24519;-67
2023/04/04 11:10:46;;;;;;;2.50;1.30;;;;;;;8.84;nan;97854.19;1727034;75;24207;-67
2023/04/04 11:13:21;;;;;;;2.90;1.30;;;;;;;6.90;nan;97849.63;1726903;75;24662;-67
2023/04/04 11:15:59;;;;;;;13.10;2.40;;;;;;;6.70;nan;97853.47;1728073;75;24234;-68
2023/04/04 11:18:53;;;;;;;;;;;;;;;6.55;nan;97847.78;1727786;75;24834;-67
2023/04/04 11:21:28;;;;;;;3.80;2.00;;;;;;;6.57;nan;97842.66;1727360;75;24841;-68
2023/04/04 11:24:20;;;;;;;2.90;1.50;;;;;;;6.12;nan;97826.78;1727729;75;24587;-67
2023/04/04 11:26:50;;;;;;;3.50;1.80;;;;;;;5.87;nan;97849.31;1728027;75;25570;-67
2023/04/04 11:29:44;;;;;;;4.30;1.70;;;;;;;6.25;nan;97835.63;1727871;75;24943;-68
2023/04/04 11:32:36;;;;;;;4.50;1.40;;;;;;;6.28;nan;97834.78;1727488;75;25412;-69
2023/04/04 11:35:11;;;;;;;4.60;1.40;;;;;;;6.22;nan;97831.09;1725177;75;24968;-68
2023/04/04 11:38:02;;;;;;;5.60;1.90;;;;;;;6.37;nan;97834.06;1727711;75;24192;-67
2023/04/04 11:40:41;;;;;;;2.20;1.40;;;;;;;6.36;nan;97824.41;1727054;75;26994;-68
2023/04/04 11:43:22;;;;;;;2.90;1.50;;;;;;;6.24;nan;97814.34;1727581;75;25035;-67
2023/04/04 11:45:54;;;;;;;6.70;2.40;;;;;;;7.00;nan;97804.94;1726902;75;24151;-68
2023/04/04 11:48:25;;;;;;;2.80;1.40;;;;;;;6.92;nan;97825.47;1727552;75;24074;-68
2023/04/04 11:50:58;;;;;;;4.60;1.60;;;;;;;7.40;nan;97815.81;1726494;75;24255;-69
2023/04/04 11:53:28;;;;;;;3.70;1.60;;;;;;;6.94;nan;97804.00;1727201;75;25080;-69
2023/04/04 11:55:57;;;;;;;4.80;1.70;;;;;;;7.13;nan;97829.34;1726603;75;24989;-70
2023/04/04 11:58:30;;;;;;;3.70;1.40;;;;;;;7.59;nan;97829.47;1727542;75;24667;-68
2023/04/04 12:01:00;;;;;;;2.10;1.00;;;;;;;8.43;nan;97815.44;1726482;75;24793;-69
2023/04/04 12:03:34;;;;;;;4.90;1.80;;;;;;;7.32;nan;97822.75;1727538;75;24532;-67
2023/04/04 12:06:08;;;;;;;3.40;1.10;;;;;;;8.60;nan;97815.13;1727373;75;24109;-69
2023/04/04 12:08:38;;;;;;;1.90;1.20;;;;;;;9.46;nan;97800.22;1726225;83;24801;-70
2023/04/04 12:11:11;;;;;;;2.70;1.30;;;;;;;10.25;nan;97786.13;1727180;75;24145;-68
2023/04/04 12:13:45;;;;;;;1.80;1.10;;;;;;;9.27;nan;97783.91;1727027;75;24733;-70
2023/04/04 12:16:15;;;;;;;2.90;1.30;;;;;;;8.66;nan;97805.06;1726765;75;24249;-69
2023/04/04 12:18:46;;;;;;;4.90;1.20;;;;;;;8.73;nan;97789.16;1727546;75;24463;-68